sensor_id;sensor_type;location;lat;lon;timestamp;P1;durP1;ratioP1;P2;durP2;ratioP2
24826;SDS011;12910;57.690;11.974;2023-02-03T00:00:37;2.20;;;0.63;;
24826;SDS011;12910;57.690;11.974;2023-02-03T00:03:03;3.87;;;0.87;;
24826;SDS011;12910;57.690;11.974;2023-02-03T00:05:29;2.50;;;0.97;;
24826;SDS011;12910;57.690;11.974;2023-02-03T00:07:55;2.57;;;0.80;;
24826;SDS011;12910;57.690;11.974;2023-02-03T00:10:20;1.43;;;0.40;;
24826;SDS011;12910;57.690;11.974;2023-02-03T00:12:47;3.80;;;1.20;;
24826;SDS011;12910;57.690;11.974;2023-02-03T00:15:13;2.37;;;0.60;;
24826;SDS011;12910;57.690;11.974;2023-02-03T00:17:39;4.23;;;0.60;;
24826;SDS011;12910;57.690;11.974;2023-02-03T00:20:04;0.63;;;0.63;;
24826;SDS011;12910;57.690;11.974;2023-02-03T00:22:30;3.90;;;0.50;;
24826;SDS011;12910;57.690;11.974;2023-02-03T00:24:55;6.13;;;0.70;;
24826;SDS011;12910;57.690;11.974;2023-02-03T00:27:20;0.57;;;0.43;;
24826;SDS011;12910;57.690;11.974;2023-02-03T00:29:46;0.60;;;0.60;;
24826;SDS011;12910;57.690;11.974;2023-02-03T00:32:11;0.90;;;0.60;;
24826;SDS011;12910;57.690;11.974;2023-02-03T00:34:36;2.97;;;0.50;;
24826;SDS011;12910;57.690;11.974;2023-02-03T00:37:02;0.60;;;0.60;;
24826;SDS011;12910;57.690;11.974;2023-02-03T00:39:27;0.80;;;0.57;;
24826;SDS011;12910;57.690;11.974;2023-02-03T00:41:52;1.47;;;0.60;;
24826;SDS011;12910;57.690;11.974;2023-02-03T00:44:18;1.03;;;0.67;;
24826;SDS011;12910;57.690;11.974;2023-02-03T00:46:43;0.50;;;0.50;;
24826;SDS011;12910;57.690;11.974;2023-02-03T00:49:09;1.67;;;0.67;;
24826;SDS011;12910;57.690;11.974;2023-02-03T00:51:34;0.93;;;0.40;;
24826;SDS011;12910;57.690;11.974;2023-02-03T00:53:59;0.80;;;0.53;;
24826;SDS011;12910;57.690;11.974;2023-02-03T00:56:25;1.30;;;0.50;;
24826;SDS011;12910;57.690;11.974;2023-02-03T00:58:50;2.40;;;0.67;;
24826;SDS011;12910;57.690;11.974;2023-02-03T01:01:16;0.73;;;0.50;;
24826;SDS011;12910;57.690;11.974;2023-02-03T01:03:41;0.70;;;0.53;;
24826;SDS011;12910;57.690;11.974;2023-02-03T01:06:14;0.60;;;0.60;;
24826;SDS011;12910;57.690;11.974;2023-02-03T01:08:41;0.93;;;0.73;;
24826;SDS011;12910;57.690;11.974;2023-02-03T01:11:07;3.40;;;0.77;;
24826;SDS011;12910;57.690;11.974;2023-02-03T01:13:34;0.60;;;0.40;;
24826;SDS011;12910;57.690;11.974;2023-02-03T01:16:00;1.47;;;1.00;;
24826;SDS011;12910;57.690;11.974;2023-02-03T01:18:25;1.43;;;0.70;;
24826;SDS011;12910;57.690;11.974;2023-02-03T01:20:50;0.60;;;0.43;;
24826;SDS011;12910;57.690;11.974;2023-02-03T01:23:16;0.83;;;0.60;;
24826;SDS011;12910;57.690;11.974;2023-02-03T01:25:41;1.50;;;0.70;;
24826;SDS011;12910;57.690;11.974;2023-02-03T01:28:06;0.83;;;0.83;;
24826;SDS011;12910;57.690;11.974;2023-02-03T01:30:32;2.47;;;0.60;;
24826;SDS011;12910;57.690;11.974;2023-02-03T01:32:58;0.77;;;0.47;;
24826;SDS011;12910;57.690;11.974;2023-02-03T01:35:23;1.33;;;0.90;;
24826;SDS011;12910;57.690;11.974;2023-02-03T01:37:48;0.87;;;0.50;;
24826;SDS011;12910;57.690;11.974;2023-02-03T01:40:14;3.67;;;0.80;;
24826;SDS011;12910;57.690;11.974;2023-02-03T01:42:39;4.27;;;0.90;;
24826;SDS011;12910;57.690;11.974;2023-02-03T01:45:05;0.73;;;0.60;;
24826;SDS011;12910;57.690;11.974;2023-02-03T01:50:02;1.63;;;0.97;;
24826;SDS011;12910;57.690;11.974;2023-02-03T01:52:29;6.07;;;1.13;;
24826;SDS011;12910;57.690;11.974;2023-02-03T01:54:56;1.50;;;0.90;;
24826;SDS011;12910;57.690;11.974;2023-02-03T01:57:26;1.00;;;0.93;;
24826;SDS011;12910;57.690;11.974;2023-02-03T01:59:57;1.33;;;1.17;;
24826;SDS011;12910;57.690;11.974;2023-02-03T02:02:24;2.63;;;0.77;;
24826;SDS011;12910;57.690;11.974;2023-02-03T02:04:54;0.90;;;0.80;;
24826;SDS011;12910;57.690;11.974;2023-02-03T02:07:25;0.80;;;0.80;;
24826;SDS011;12910;57.690;11.974;2023-02-03T02:09:51;3.27;;;1.17;;
24826;SDS011;12910;57.690;11.974;2023-02-03T02:12:18;2.80;;;1.30;;
24826;SDS011;12910;57.690;11.974;2023-02-03T02:14:44;2.10;;;0.93;;
24826;SDS011;12910;57.690;11.974;2023-02-03T02:17:35;2.20;;;0.90;;
24826;SDS011;12910;57.690;11.974;2023-02-03T02:23:26;4.97;;;0.80;;
24826;SDS011;12910;57.690;11.974;2023-02-03T02:29:25;5.90;;;1.40;;
24826;SDS011;12910;57.690;11.974;2023-02-03T02:34:46;3.50;;;0.87;;
24826;SDS011;12910;57.690;11.974;2023-02-03T02:37:37;2.53;;;1.00;;
24826;SDS011;12910;57.690;11.974;2023-02-03T02:45:55;1.17;;;0.93;;
24826;SDS011;12910;57.690;11.974;2023-02-03T02:48:34;1.30;;;1.00;;
24826;SDS011;12910;57.690;11.974;2023-02-03T02:51:08;1.73;;;0.70;;
24826;SDS011;12910;57.690;11.974;2023-02-03T02:53:37;1.17;;;0.80;;
24826;SDS011;12910;57.690;11.974;2023-02-03T02:56:07;2.40;;;1.10;;
24826;SDS011;12910;57.690;11.974;2023-02-03T02:58:35;0.83;;;0.80;;
24826;SDS011;12910;57.690;11.974;2023-02-03T03:01:03;0.70;;;0.70;;
24826;SDS011;12910;57.690;11.974;2023-02-03T03:03:32;1.43;;;1.00;;
24826;SDS011;12910;57.690;11.974;2023-02-03T03:06:31;0.80;;;0.80;;
24826;SDS011;12910;57.690;11.974;2023-02-03T03:08:56;1.13;;;0.60;;
24826;SDS011;12910;57.690;11.974;2023-02-03T03:11:26;1.60;;;0.60;;
24826;SDS011;12910;57.690;11.974;2023-02-03T03:13:55;1.83;;;0.70;;
24826;SDS011;12910;57.690;11.974;2023-02-03T03:16:25;1.37;;;1.17;;
24826;SDS011;12910;57.690;11.974;2023-02-03T03:18:57;1.70;;;1.43;;
24826;SDS011;12910;57.690;11.974;2023-02-03T03:21:30;0.67;;;0.67;;
24826;SDS011;12910;57.690;11.974;2023-02-03T03:24:00;1.13;;;0.87;;
24826;SDS011;12910;57.690;11.974;2023-02-03T03:29:05;1.27;;;0.90;;
24826;SDS011;12910;57.690;11.974;2023-02-03T03:31:36;1.50;;;0.67;;
24826;SDS011;12910;57.690;11.974;2023-02-03T03:34:03;0.60;;;0.60;;
24826;SDS011;12910;57.690;11.974;2023-02-03T03:36:33;0.50;;;0.50;;
24826;SDS011;12910;57.690;11.974;2023-02-03T03:42:11;0.40;;;0.40;;
24826;SDS011;12910;57.690;11.974;2023-02-03T03:47:53;0.33;;;0.33;;
24826;SDS011;12910;57.690;11.974;2023-02-03T03:50:27;0.77;;;0.40;;
24826;SDS011;12910;57.690;11.974;2023-02-03T03:52:57;1.60;;;0.40;;
24826;SDS011;12910;57.690;11.974;2023-02-03T03:55:26;0.50;;;0.50;;
24826;SDS011;12910;57.690;11.974;2023-02-03T03:58:13;0.40;;;0.40;;
24826;SDS011;12910;57.690;11.974;2023-02-03T04:00:43;0.30;;;0.30;;
24826;SDS011;12910;57.690;11.974;2023-02-03T04:03:11;0.40;;;0.40;;
24826;SDS011;12910;57.690;11.974;2023-02-03T04:05:40;0.40;;;0.40;;
24826;SDS011;12910;57.690;11.974;2023-02-03T04:08:06;0.40;;;0.40;;
24826;SDS011;12910;57.690;11.974;2023-02-03T04:10:36;0.40;;;0.30;;
24826;SDS011;12910;57.690;11.974;2023-02-03T04:13:04;0.40;;;0.30;;
24826;SDS011;12910;57.690;11.974;2023-02-03T04:15:30;0.50;;;0.30;;
24826;SDS011;12910;57.690;11.974;2023-02-03T04:17:57;0.30;;;0.30;;
24826;SDS011;12910;57.690;11.974;2023-02-03T04:20:23;0.90;;;0.70;;
24826;SDS011;12910;57.690;11.974;2023-02-03T04:22:49;0.30;;;0.30;;
24826;SDS011;12910;57.690;11.974;2023-02-03T04:25:14;0.50;;;0.30;;
24826;SDS011;12910;57.690;11.974;2023-02-03T04:27:40;0.50;;;0.50;;
24826;SDS011;12910;57.690;11.974;2023-02-03T04:30:05;0.30;;;0.30;;
24826;SDS011;12910;57.690;11.974;2023-02-03T04:32:31;0.47;;;0.20;;
24826;SDS011;12910;57.690;11.974;2023-02-03T04:34:59;0.30;;;0.30;;
24826;SDS011;12910;57.690;11.974;2023-02-03T04:37:24;0.50;;;0.50;;
24826;SDS011;12910;57.690;11.974;2023-02-03T04:39:53;0.30;;;0.30;;
24826;SDS011;12910;57.690;11.974;2023-02-03T04:42:19;0.40;;;0.33;;
24826;SDS011;12910;57.690;11.974;2023-02-03T04:44:45;0.30;;;0.30;;
24826;SDS011;12910;57.690;11.974;2023-02-03T04:47:10;0.20;;;0.20;;
24826;SDS011;12910;57.690;11.974;2023-02-03T04:49:35;0.63;;;0.47;;
24826;SDS011;12910;57.690;11.974;2023-02-03T04:52:01;0.40;;;0.20;;
24826;SDS011;12910;57.690;11.974;2023-02-03T04:54:26;0.30;;;0.30;;
24826;SDS011;12910;57.690;11.974;2023-02-03T04:56:51;0.40;;;0.40;;
24826;SDS011;12910;57.690;11.974;2023-02-03T04:59:17;0.93;;;0.40;;
24826;SDS011;12910;57.690;11.974;2023-02-03T05:01:42;0.30;;;0.30;;
24826;SDS011;12910;57.690;11.974;2023-02-03T05:04:07;0.30;;;0.20;;
24826;SDS011;12910;57.690;11.974;2023-02-03T05:06:33;0.20;;;0.20;;
24826;SDS011;12910;57.690;11.974;2023-02-03T05:08:58;0.30;;;0.30;;
24826;SDS011;12910;57.690;11.974;2023-02-03T05:11:24;0.27;;;0.27;;
24826;SDS011;12910;57.690;11.974;2023-02-03T05:13:49;0.20;;;0.20;;
24826;SDS011;12910;57.690;11.974;2023-02-03T05:16:15;0.83;;;0.20;;
24826;SDS011;12910;57.690;11.974;2023-02-03T05:18:40;0.17;;;0.17;;
24826;SDS011;12910;57.690;11.974;2023-02-03T05:21:06;0.30;;;0.30;;
24826;SDS011;12910;57.690;11.974;2023-02-03T05:23:31;0.30;;;0.30;;
24826;SDS011;12910;57.690;11.974;2023-02-03T05:25:57;0.20;;;0.20;;
24826;SDS011;12910;57.690;11.974;2023-02-03T05:28:23;0.20;;;0.20;;
24826;SDS011;12910;57.690;11.974;2023-02-03T05:30:48;0.50;;;0.30;;
24826;SDS011;12910;57.690;11.974;2023-02-03T05:33:13;0.20;;;0.20;;
24826;SDS011;12910;57.690;11.974;2023-02-03T05:35:39;0.20;;;0.20;;
24826;SDS011;12910;57.690;11.974;2023-02-03T05:38:04;0.20;;;0.20;;
24826;SDS011;12910;57.690;11.974;2023-02-03T05:40:29;0.30;;;0.30;;
24826;SDS011;12910;57.690;11.974;2023-02-03T05:43:13;0.20;;;0.20;;
24826;SDS011;12910;57.690;11.974;2023-02-03T05:45:39;0.20;;;0.20;;
24826;SDS011;12910;57.690;11.974;2023-02-03T05:48:04;0.20;;;0.20;;
24826;SDS011;12910;57.690;11.974;2023-02-03T05:50:31;0.10;;;0.10;;
24826;SDS011;12910;57.690;11.974;2023-02-03T05:52:59;0.30;;;0.30;;
24826;SDS011;12910;57.690;11.974;2023-02-03T05:55:25;0.20;;;0.20;;
24826;SDS011;12910;57.690;11.974;2023-02-03T05:57:51;0.33;;;0.30;;
24826;SDS011;12910;57.690;11.974;2023-02-03T06:00:18;0.17;;;0.17;;
24826;SDS011;12910;57.690;11.974;2023-02-03T06:02:45;0.40;;;0.30;;
24826;SDS011;12910;57.690;11.974;2023-02-03T06:05:15;0.97;;;0.40;;
24826;SDS011;12910;57.690;11.974;2023-02-03T06:07:40;0.13;;;0.13;;
24826;SDS011;12910;57.690;11.974;2023-02-03T06:10:06;0.57;;;0.20;;
24826;SDS011;12910;57.690;11.974;2023-02-03T06:12:32;1.80;;;0.30;;
24826;SDS011;12910;57.690;11.974;2023-02-03T06:14:57;1.57;;;0.20;;
24826;SDS011;12910;57.690;11.974;2023-02-03T06:17:22;0.20;;;0.20;;
24826;SDS011;12910;57.690;11.974;2023-02-03T06:19:48;0.30;;;0.20;;
24826;SDS011;12910;57.690;11.974;2023-02-03T06:22:13;0.20;;;0.20;;
24826;SDS011;12910;57.690;11.974;2023-02-03T06:24:38;0.13;;;0.13;;
24826;SDS011;12910;57.690;11.974;2023-02-03T06:27:04;0.23;;;0.23;;
24826;SDS011;12910;57.690;11.974;2023-02-03T06:29:29;0.43;;;0.20;;
24826;SDS011;12910;57.690;11.974;2023-02-03T06:31:54;0.57;;;0.30;;
24826;SDS011;12910;57.690;11.974;2023-02-03T06:34:20;0.40;;;0.40;;
24826;SDS011;12910;57.690;11.974;2023-02-03T06:36:45;0.20;;;0.20;;
24826;SDS011;12910;57.690;11.974;2023-02-03T06:39:12;0.30;;;0.30;;
24826;SDS011;12910;57.690;11.974;2023-02-03T06:41:37;0.30;;;0.30;;
24826;SDS011;12910;57.690;11.974;2023-02-03T06:44:03;0.20;;;0.20;;
24826;SDS011;12910;57.690;11.974;2023-02-03T06:46:28;0.30;;;0.30;;
24826;SDS011;12910;57.690;11.974;2023-02-03T06:48:54;0.20;;;0.20;;
24826;SDS011;12910;57.690;11.974;2023-02-03T06:51:20;0.20;;;0.20;;
24826;SDS011;12910;57.690;11.974;2023-02-03T06:53:45;0.20;;;0.20;;
24826;SDS011;12910;57.690;11.974;2023-02-03T06:56:10;0.10;;;0.10;;
24826;SDS011;12910;57.690;11.974;2023-02-03T06:58:36;0.20;;;0.20;;
24826;SDS011;12910;57.690;11.974;2023-02-03T07:01:01;0.20;;;0.20;;
24826;SDS011;12910;57.690;11.974;2023-02-03T07:03:27;0.30;;;0.30;;
24826;SDS011;12910;57.690;11.974;2023-02-03T07:05:52;0.20;;;0.20;;
24826;SDS011;12910;57.690;11.974;2023-02-03T07:08:17;0.30;;;0.30;;
24826;SDS011;12910;57.690;11.974;2023-02-03T07:10:43;0.20;;;0.20;;
24826;SDS011;12910;57.690;11.974;2023-02-03T07:13:08;0.20;;;0.20;;
24826;SDS011;12910;57.690;11.974;2023-02-03T07:15:33;0.20;;;0.20;;
24826;SDS011;12910;57.690;11.974;2023-02-03T07:17:59;0.20;;;0.20;;
24826;SDS011;12910;57.690;11.974;2023-02-03T07:20:25;0.40;;;0.40;;
24826;SDS011;12910;57.690;11.974;2023-02-03T07:22:53;0.40;;;0.27;;
24826;SDS011;12910;57.690;11.974;2023-02-03T07:25:20;0.30;;;0.30;;
24826;SDS011;12910;57.690;11.974;2023-02-03T07:27:45;0.20;;;0.20;;
24826;SDS011;12910;57.690;11.974;2023-02-03T07:30:11;0.30;;;0.30;;
24826;SDS011;12910;57.690;11.974;2023-02-03T07:32:36;0.67;;;0.30;;
24826;SDS011;12910;57.690;11.974;2023-02-03T07:35:02;0.87;;;0.47;;
24826;SDS011;12910;57.690;11.974;2023-02-03T07:37:27;0.40;;;0.30;;
24826;SDS011;12910;57.690;11.974;2023-02-03T07:39:53;0.20;;;0.20;;
24826;SDS011;12910;57.690;11.974;2023-02-03T07:42:18;0.30;;;0.30;;
24826;SDS011;12910;57.690;11.974;2023-02-03T07:44:43;0.20;;;0.20;;
24826;SDS011;12910;57.690;11.974;2023-02-03T07:47:09;0.83;;;0.20;;
24826;SDS011;12910;57.690;11.974;2023-02-03T07:49:34;0.20;;;0.20;;
24826;SDS011;12910;57.690;11.974;2023-02-03T07:51:59;0.30;;;0.30;;
24826;SDS011;12910;57.690;11.974;2023-02-03T07:54:25;0.20;;;0.20;;
24826;SDS011;12910;57.690;11.974;2023-02-03T07:56:51;0.23;;;0.20;;
24826;SDS011;12910;57.690;11.974;2023-02-03T07:59:16;0.20;;;0.20;;
24826;SDS011;12910;57.690;11.974;2023-02-03T08:01:42;0.30;;;0.30;;
24826;SDS011;12910;57.690;11.974;2023-02-03T08:04:07;0.20;;;0.20;;
24826;SDS011;12910;57.690;11.974;2023-02-03T08:06:33;0.30;;;0.30;;
24826;SDS011;12910;57.690;11.974;2023-02-03T08:08:58;0.20;;;0.20;;
24826;SDS011;12910;57.690;11.974;2023-02-03T08:11:24;0.20;;;0.20;;
24826;SDS011;12910;57.690;11.974;2023-02-03T08:13:49;0.20;;;0.20;;
24826;SDS011;12910;57.690;11.974;2023-02-03T08:16:15;0.10;;;0.10;;
24826;SDS011;12910;57.690;11.974;2023-02-03T08:18:40;0.20;;;0.20;;
24826;SDS011;12910;57.690;11.974;2023-02-03T08:21:05;0.17;;;0.17;;
24826;SDS011;12910;57.690;11.974;2023-02-03T08:23:31;0.20;;;0.20;;
24826;SDS011;12910;57.690;11.974;2023-02-03T08:25:56;0.20;;;0.20;;
24826;SDS011;12910;57.690;11.974;2023-02-03T08:28:22;0.30;;;0.30;;
24826;SDS011;12910;57.690;11.974;2023-02-03T08:30:47;0.30;;;0.20;;
24826;SDS011;12910;57.690;11.974;2023-02-03T08:33:13;0.10;;;0.10;;
24826;SDS011;12910;57.690;11.974;2023-02-03T08:35:38;0.77;;;0.20;;
24826;SDS011;12910;57.690;11.974;2023-02-03T08:38:04;0.20;;;0.20;;
24826;SDS011;12910;57.690;11.974;2023-02-03T08:40:30;0.30;;;0.30;;
24826;SDS011;12910;57.690;11.974;2023-02-03T08:42:55;0.73;;;0.30;;
24826;SDS011;12910;57.690;11.974;2023-02-03T08:45:21;0.27;;;0.27;;
24826;SDS011;12910;57.690;11.974;2023-02-03T08:47:46;0.43;;;0.20;;
24826;SDS011;12910;57.690;11.974;2023-02-03T08:50:11;0.30;;;0.30;;
24826;SDS011;12910;57.690;11.974;2023-02-03T08:52:37;0.20;;;0.20;;
24826;SDS011;12910;57.690;11.974;2023-02-03T08:55:03;0.53;;;0.20;;
24826;SDS011;12910;57.690;11.974;2023-02-03T08:57:32;1.30;;;0.30;;
24826;SDS011;12910;57.690;11.974;2023-02-03T08:59:59;0.30;;;0.30;;
24826;SDS011;12910;57.690;11.974;2023-02-03T09:02:24;0.20;;;0.20;;
24826;SDS011;12910;57.690;11.974;2023-02-03T09:04:50;0.17;;;0.17;;
24826;SDS011;12910;57.690;11.974;2023-02-03T09:07:16;0.40;;;0.20;;
24826;SDS011;12910;57.690;11.974;2023-02-03T09:09:41;0.30;;;0.20;;
24826;SDS011;12910;57.690;11.974;2023-02-03T09:12:07;0.20;;;0.20;;
24826;SDS011;12910;57.690;11.974;2023-02-03T09:14:32;0.20;;;0.20;;
24826;SDS011;12910;57.690;11.974;2023-02-03T09:16:59;0.20;;;0.20;;
24826;SDS011;12910;57.690;11.974;2023-02-03T09:19:25;1.57;;;0.20;;
24826;SDS011;12910;57.690;11.974;2023-02-03T09:21:50;2.20;;;0.50;;
24826;SDS011;12910;57.690;11.974;2023-02-03T09:24:16;0.47;;;0.30;;
24826;SDS011;12910;57.690;11.974;2023-02-03T09:26:42;0.20;;;0.20;;
24826;SDS011;12910;57.690;11.974;2023-02-03T09:29:07;0.20;;;0.20;;
24826;SDS011;12910;57.690;11.974;2023-02-03T09:31:33;5.50;;;0.30;;
24826;SDS011;12910;57.690;11.974;2023-02-03T09:33:58;0.37;;;0.30;;
24826;SDS011;12910;57.690;11.974;2023-02-03T09:36:24;0.27;;;0.27;;
24826;SDS011;12910;57.690;11.974;2023-02-03T09:38:50;0.20;;;0.20;;
24826;SDS011;12910;57.690;11.974;2023-02-03T09:41:19;0.67;;;0.37;;
24826;SDS011;12910;57.690;11.974;2023-02-03T09:44:03;0.30;;;0.30;;
24826;SDS011;12910;57.690;11.974;2023-02-03T09:46:32;0.47;;;0.20;;
24826;SDS011;12910;57.690;11.974;2023-02-03T09:49:47;0.20;;;0.20;;
24826;SDS011;12910;57.690;11.974;2023-02-03T09:51:58;0.23;;;0.23;;
24826;SDS011;12910;57.690;11.974;2023-02-03T09:57:04;0.30;;;0.30;;
24826;SDS011;12910;57.690;11.974;2023-02-03T09:59:36;0.53;;;0.40;;
24826;SDS011;12910;57.690;11.974;2023-02-03T10:08:06;0.30;;;0.30;;
24826;SDS011;12910;57.690;11.974;2023-02-03T10:10:47;0.40;;;0.40;;
24826;SDS011;12910;57.690;11.974;2023-02-03T10:13:55;4.33;;;0.40;;
24826;SDS011;12910;57.690;11.974;2023-02-03T10:16:37;0.20;;;0.20;;
24826;SDS011;12910;57.690;11.974;2023-02-03T10:19:12;0.30;;;0.20;;
24826;SDS011;12910;57.690;11.974;2023-02-03T10:21:46;0.30;;;0.30;;
24826;SDS011;12910;57.690;11.974;2023-02-03T10:24:20;0.33;;;0.30;;
24826;SDS011;12910;57.690;11.974;2023-02-03T10:26:51;0.30;;;0.30;;
24826;SDS011;12910;57.690;11.974;2023-02-03T10:29:33;0.30;;;0.30;;
24826;SDS011;12910;57.690;11.974;2023-02-03T10:32:10;0.20;;;0.20;;
24826;SDS011;12910;57.690;11.974;2023-02-03T10:34:36;0.73;;;0.37;;
24826;SDS011;12910;57.690;11.974;2023-02-03T10:39:44;1.60;;;0.37;;
24826;SDS011;12910;57.690;11.974;2023-02-03T10:42:13;0.40;;;0.40;;
24826;SDS011;12910;57.690;11.974;2023-02-03T10:44:41;0.30;;;0.30;;
24826;SDS011;12910;57.690;11.974;2023-02-03T10:50:17;0.33;;;0.30;;
24826;SDS011;12910;57.690;11.974;2023-02-03T10:52:47;0.20;;;0.20;;
24826;SDS011;12910;57.690;11.974;2023-02-03T10:57:51;0.30;;;0.30;;
24826;SDS011;12910;57.690;11.974;2023-02-03T11:00:20;0.57;;;0.33;;
24826;SDS011;12910;57.690;11.974;2023-02-03T11:03:00;2.40;;;0.30;;
24826;SDS011;12910;57.690;11.974;2023-02-03T11:05:30;1.60;;;0.40;;
24826;SDS011;12910;57.690;11.974;2023-02-03T11:07:55;0.63;;;0.40;;
24826;SDS011;12910;57.690;11.974;2023-02-03T11:13:23;0.70;;;0.50;;
24826;SDS011;12910;57.690;11.974;2023-02-03T11:15:54;0.40;;;0.40;;
24826;SDS011;12910;57.690;11.974;2023-02-03T11:18:41;0.23;;;0.23;;
24826;SDS011;12910;57.690;11.974;2023-02-03T11:21:18;0.47;;;0.47;;
24826;SDS011;12910;57.690;11.974;2023-02-03T11:24:03;0.70;;;0.30;;
24826;SDS011;12910;57.690;11.974;2023-02-03T11:26:38;0.40;;;0.40;;
24826;SDS011;12910;57.690;11.974;2023-02-03T11:29:13;0.60;;;0.33;;
24826;SDS011;12910;57.690;11.974;2023-02-03T11:31:48;0.43;;;0.30;;
24826;SDS011;12910;57.690;11.974;2023-02-03T11:34:16;0.30;;;0.30;;
24826;SDS011;12910;57.690;11.974;2023-02-03T11:36:48;2.00;;;0.40;;
24826;SDS011;12910;57.690;11.974;2023-02-03T11:41:50;0.43;;;0.40;;
24826;SDS011;12910;57.690;11.974;2023-02-03T11:44:26;0.23;;;0.23;;
24826;SDS011;12910;57.690;11.974;2023-02-03T12:00:29;1.17;;;0.33;;
24826;SDS011;12910;57.690;11.974;2023-02-03T12:17:05;3.10;;;0.80;;
24826;SDS011;12910;57.690;11.974;2023-02-03T12:22:42;1.63;;;0.50;;
24826;SDS011;12910;57.690;11.974;2023-02-03T12:30:48;0.30;;;0.30;;
24826;SDS011;12910;57.690;11.974;2023-02-03T12:33:19;0.27;;;0.27;;
24826;SDS011;12910;57.690;11.974;2023-02-03T12:36:13;0.20;;;0.20;;
24826;SDS011;12910;57.690;11.974;2023-02-03T12:41:25;3.00;;;0.40;;
24826;SDS011;12910;57.690;11.974;2023-02-03T12:43:59;0.67;;;0.40;;
24826;SDS011;12910;57.690;11.974;2023-02-03T12:46:30;0.30;;;0.30;;
24826;SDS011;12910;57.690;11.974;2023-02-03T12:52:02;0.83;;;0.30;;
24826;SDS011;12910;57.690;11.974;2023-02-03T12:57:24;3.73;;;0.40;;
24826;SDS011;12910;57.690;11.974;2023-02-03T13:00:00;0.80;;;0.50;;
24826;SDS011;12910;57.690;11.974;2023-02-03T13:02:31;1.60;;;0.30;;
24826;SDS011;12910;57.690;11.974;2023-02-03T13:05:51;0.33;;;0.33;;
24826;SDS011;12910;57.690;11.974;2023-02-03T13:08:07;1.70;;;0.30;;
24826;SDS011;12910;57.690;11.974;2023-02-03T13:10:47;0.30;;;0.27;;
24826;SDS011;12910;57.690;11.974;2023-02-03T13:13:16;1.70;;;0.30;;
24826;SDS011;12910;57.690;11.974;2023-02-03T13:15:50;0.30;;;0.30;;
24826;SDS011;12910;57.690;11.974;2023-02-03T13:18:28;0.67;;;0.30;;
24826;SDS011;12910;57.690;11.974;2023-02-03T13:20:57;0.50;;;0.50;;
24826;SDS011;12910;57.690;11.974;2023-02-03T13:23:23;0.30;;;0.23;;
24826;SDS011;12910;57.690;11.974;2023-02-03T13:37:03;5.30;;;0.50;;
24826;SDS011;12910;57.690;11.974;2023-02-03T13:42:24;0.30;;;0.30;;
24826;SDS011;12910;57.690;11.974;2023-02-03T13:44:56;1.80;;;0.40;;
24826;SDS011;12910;57.690;11.974;2023-02-03T13:47:44;0.27;;;0.27;;
24826;SDS011;12910;57.690;11.974;2023-02-03T13:50:19;0.43;;;0.30;;
24826;SDS011;12910;57.690;11.974;2023-02-03T13:55:52;3.07;;;0.40;;
24826;SDS011;12910;57.690;11.974;2023-02-03T13:58:24;0.20;;;0.20;;
24826;SDS011;12910;57.690;11.974;2023-02-03T14:05:46;0.30;;;0.30;;
24826;SDS011;12910;57.690;11.974;2023-02-03T14:08:57;0.40;;;0.40;;
24826;SDS011;12910;57.690;11.974;2023-02-03T14:16:41;0.40;;;0.40;;
24826;SDS011;12910;57.690;11.974;2023-02-03T14:19:08;0.30;;;0.30;;
24826;SDS011;12910;57.690;11.974;2023-02-03T14:22:19;0.37;;;0.30;;
24826;SDS011;12910;57.690;11.974;2023-02-03T14:24:42;0.37;;;0.20;;
24826;SDS011;12910;57.690;11.974;2023-02-03T14:32:48;2.00;;;0.30;;
24826;SDS011;12910;57.690;11.974;2023-02-03T14:35:17;0.57;;;0.40;;
24826;SDS011;12910;57.690;11.974;2023-02-03T14:37:51;0.30;;;0.30;;
24826;SDS011;12910;57.690;11.974;2023-02-03T14:46:25;0.33;;;0.23;;
24826;SDS011;12910;57.690;11.974;2023-02-03T14:52:02;1.53;;;0.47;;
24826;SDS011;12910;57.690;11.974;2023-02-03T14:59:44;3.03;;;0.60;;
24826;SDS011;12910;57.690;11.974;2023-02-03T15:02:20;0.87;;;0.50;;
24826;SDS011;12910;57.690;11.974;2023-02-03T15:04:49;0.70;;;0.37;;
24826;SDS011;12910;57.690;11.974;2023-02-03T15:07:48;2.20;;;0.50;;
24826;SDS011;12910;57.690;11.974;2023-02-03T15:12:53;0.83;;;0.33;;
24826;SDS011;12910;57.690;11.974;2023-02-03T15:17:46;0.53;;;0.40;;
24826;SDS011;12910;57.690;11.974;2023-02-03T15:22:56;2.30;;;0.40;;
24826;SDS011;12910;57.690;11.974;2023-02-03T15:25:22;4.00;;;0.50;;
24826;SDS011;12910;57.690;11.974;2023-02-03T15:27:50;1.77;;;0.50;;
24826;SDS011;12910;57.690;11.974;2023-02-03T15:30:25;3.63;;;0.53;;
24826;SDS011;12910;57.690;11.974;2023-02-03T15:33:00;2.17;;;0.80;;
24826;SDS011;12910;57.690;11.974;2023-02-03T15:35:33;1.03;;;0.70;;
24826;SDS011;12910;57.690;11.974;2023-02-03T15:38:08;0.60;;;0.60;;
24826;SDS011;12910;57.690;11.974;2023-02-03T15:40:49;7.73;;;0.60;;
24826;SDS011;12910;57.690;11.974;2023-02-03T15:46:17;1.73;;;0.70;;
24826;SDS011;12910;57.690;11.974;2023-02-03T15:48:53;1.20;;;0.77;;
24826;SDS011;12910;57.690;11.974;2023-02-03T15:51:27;0.83;;;0.83;;
24826;SDS011;12910;57.690;11.974;2023-02-03T15:54:07;1.53;;;1.00;;
24826;SDS011;12910;57.690;11.974;2023-02-03T15:56:50;1.70;;;0.90;;
24826;SDS011;12910;57.690;11.974;2023-02-03T16:01:51;1.07;;;0.83;;
24826;SDS011;12910;57.690;11.974;2023-02-03T16:04:17;2.50;;;0.70;;
24826;SDS011;12910;57.690;11.974;2023-02-03T16:06:47;1.20;;;1.00;;
24826;SDS011;12910;57.690;11.974;2023-02-03T16:09:25;0.83;;;0.83;;
24826;SDS011;12910;57.690;11.974;2023-02-03T16:14:48;0.90;;;0.90;;
24826;SDS011;12910;57.690;11.974;2023-02-03T16:17:19;1.00;;;0.90;;
24826;SDS011;12910;57.690;11.974;2023-02-03T16:27:44;0.70;;;0.70;;
24826;SDS011;12910;57.690;11.974;2023-02-03T16:30:37;1.70;;;0.90;;
24826;SDS011;12910;57.690;11.974;2023-02-03T16:33:22;0.93;;;0.93;;
24826;SDS011;12910;57.690;11.974;2023-02-03T16:36:10;0.97;;;0.87;;
24826;SDS011;12910;57.690;11.974;2023-02-03T16:38:57;1.00;;;1.00;;
24826;SDS011;12910;57.690;11.974;2023-02-03T16:41:44;2.30;;;1.40;;
24826;SDS011;12910;57.690;11.974;2023-02-03T16:44:28;3.03;;;0.93;;
24826;SDS011;12910;57.690;11.974;2023-02-03T16:50:13;3.13;;;1.97;;
24826;SDS011;12910;57.690;11.974;2023-02-03T16:52:57;1.20;;;1.10;;
24826;SDS011;12910;57.690;11.974;2023-02-03T16:55:22;1.20;;;1.10;;
24826;SDS011;12910;57.690;11.974;2023-02-03T16:57:48;1.17;;;1.07;;
24826;SDS011;12910;57.690;11.974;2023-02-03T17:00:15;2.17;;;1.63;;
24826;SDS011;12910;57.690;11.974;2023-02-03T17:02:41;1.10;;;1.00;;
24826;SDS011;12910;57.690;11.974;2023-02-03T17:05:06;1.50;;;1.03;;
24826;SDS011;12910;57.690;11.974;2023-02-03T17:07:32;2.40;;;1.10;;
24826;SDS011;12910;57.690;11.974;2023-02-03T17:09:58;1.03;;;0.93;;
24826;SDS011;12910;57.690;11.974;2023-02-03T17:12:23;1.30;;;1.20;;
24826;SDS011;12910;57.690;11.974;2023-02-03T17:14:49;7.17;;;1.27;;
24826;SDS011;12910;57.690;11.974;2023-02-03T17:17:15;1.53;;;1.30;;
24826;SDS011;12910;57.690;11.974;2023-02-03T17:19:40;1.40;;;1.30;;
24826;SDS011;12910;57.690;11.974;2023-02-03T17:22:05;1.70;;;1.60;;
24826;SDS011;12910;57.690;11.974;2023-02-03T17:24:32;1.50;;;1.40;;
24826;SDS011;12910;57.690;11.974;2023-02-03T17:26:57;1.50;;;1.40;;
24826;SDS011;12910;57.690;11.974;2023-02-03T17:29:23;1.67;;;1.40;;
24826;SDS011;12910;57.690;11.974;2023-02-03T17:31:48;1.40;;;1.30;;
24826;SDS011;12910;57.690;11.974;2023-02-03T17:34:13;1.17;;;1.13;;